Time;durP1;ratioP1;P1;durP2;ratioP2;P2;SDS_P1;SDS_P2;PMS_P1;PMS_P2;Temp;Humidity;BMP_temperature;BMP_pressure;BME280_temperature;BME280_humidity;BME280_pressure;Samples;Min_cycle;Max_cycle;Signal;HPM_P1;HPM_P2
2022/11/14 00:01:11;;;;;;;6.60;4.40;;;;;;;7.01;100.00;100838.66;1661360;84;21545;-63
2022/11/14 00:03:57;;;;;;;4.75;4.12;;;;;;;6.98;100.00;100841.29;1654226;84;21592;-63
2022/11/14 00:06:44;;;;;;;4.90;4.35;;;;;;;6.94;100.00;100837.42;1651542;84;21442;-63
2022/11/14 00:09:31;;;;;;;5.08;4.58;;;;;;;6.88;100.00;100840.95;1651277;84;21540;-65
2022/11/14 00:12:17;;;;;;;5.37;4.87;;;;;;;6.85;100.00;100842.28;1649347;84;20962;-63
2022/11/14 00:15:03;;;;;;;8.75;4.50;;;;;;;6.80;100.00;100844.09;1660161;84;21600;-63
2022/11/14 00:17:49;;;;;;;4.63;4.23;;;;;;;6.77;100.00;100853.25;1655651;84;21076;-63
2022/11/14 00:20:36;;;;;;;4.67;4.20;;;;;;;6.74;100.00;100855.88;1660037;84;21632;-63
2022/11/14 00:23:21;;;;;;;8.05;4.55;;;;;;;6.69;100.00;100850.70;1675972;83;21028;-63
2022/11/14 00:26:07;;;;;;;6.85;4.53;;;;;;;6.64;100.00;100849.86;1651128;84;21664;-63
2022/11/14 00:28:56;;;;;;;5.70;4.15;;;;;;;6.59;100.00;100849.91;1642352;84;21542;-63
2022/11/14 00:31:41;;;;;;;9.28;4.90;;;;;;;6.55;100.00;100844.24;1646940;84;21562;-69
2022/11/14 00:34:26;;;;;;;4.30;3.90;;;;;;;6.52;100.00;100843.43;1635269;84;21898;-63
2022/11/14 00:37:11;;;;;;;7.08;4.17;;;;;;;6.47;100.00;100839.52;1636308;84;21573;-66
2022/11/14 00:39:56;;;;;;;6.85;4.70;;;;;;;6.42;100.00;100842.59;1649132;84;21479;-63
2022/11/14 00:42:43;;;;;;;5.55;4.30;;;;;;;6.37;100.00;100838.72;1636889;84;21564;-63
2022/11/14 00:45:29;;;;;;;5.25;4.75;;;;;;;6.33;100.00;100838.31;1640973;84;21566;-63
2022/11/14 00:48:14;;;;;;;4.60;4.20;;;;;;;6.29;100.00;100832.69;1635274;84;21846;-63
2022/11/14 00:50:59;;;;;;;6.03;4.45;;;;;;;6.23;100.00;100834.01;1620775;86;21617;-63
2022/11/14 00:53:45;;;;;;;5.28;4.78;;;;;;;6.20;100.00;100841.44;1645434;84;21606;-63
2022/11/14 00:56:29;;;;;;;5.67;4.28;;;;;;;6.20;100.00;100844.05;1643239;84;21126;-63
2022/11/14 00:59:15;;;;;;;3.98;3.60;;;;;;;6.18;100.00;100847.11;1660188;83;21577;-62
2022/11/14 01:02:01;;;;;;;4.10;3.70;;;;;;;6.17;100.00;100847.11;1681408;83;21743;-63
2022/11/14 01:04:46;;;;;;;4.70;3.92;;;;;;;6.16;100.00;100847.56;1670364;83;21443;-62
2022/11/14 01:07:31;;;;;;;4.95;3.98;;;;;;;6.14;100.00;100847.12;1663028;83;21067;-63
2022/11/14 01:10:17;;;;;;;6.55;4.15;;;;;;;6.12;100.00;100849.77;1676113;83;21457;-63
2022/11/14 01:13:02;;;;;;;7.03;3.80;;;;;;;6.13;100.00;100852.78;1668686;83;21618;-65
2022/11/14 01:15:47;;;;;;;4.20;3.37;;;;;;;6.11;100.00;100849.32;1671866;83;21551;-62
2022/11/14 01:18:34;;;;;;;4.83;4.25;;;;;;;6.12;100.00;100847.56;1670882;83;21567;-62
2022/11/14 01:21:19;;;;;;;5.75;4.08;;;;;;;6.12;100.00;100847.56;1666853;83;21489;-63
2022/11/14 01:24:06;;;;;;;6.30;3.95;;;;;;;6.10;100.00;100848.02;1668156;83;21520;-63
2022/11/14 01:26:57;;;;;;;5.05;4.30;;;;;;;6.08;100.00;100848.47;1645821;83;21497;-63
2022/11/14 01:29:42;;;;;;;4.97;4.30;;;;;;;6.06;100.00;100848.91;1654935;85;21814;-63
2022/11/14 01:32:27;;;;;;;6.10;4.12;;;;;;;6.05;100.00;100851.97;1636920;85;21587;-62
2022/11/14 01:35:14;;;;;;;5.70;4.58;;;;;;;6.04;100.00;100847.61;1638099;85;21681;-62
2022/11/14 01:38:00;;;;;;;5.83;4.58;;;;;;;6.01;100.00;100855.03;1627318;86;21552;-62
2022/11/14 01:40:45;;;;;;;6.47;5.20;;;;;;;6.02;100.00;100855.89;1612350;86;21666;-62
2022/11/14 01:43:38;;;;;;;6.67;5.33;;;;;;;6.00;100.00;100852.42;1606690;87;21581;-62
2022/11/14 01:46:33;;;;;;;8.08;5.53;;;;;;;5.97;100.00;100849.81;1640479;85;21481;-63
2022/11/14 01:49:21;;;;;;;6.58;5.97;;;;;;;5.93;100.00;100850.67;1646693;85;21060;-63
2022/11/14 01:52:18;;;;;;;7.17;6.37;;;;;;;5.89;100.00;100848.51;1613091;86;21614;-62
2022/11/14 01:55:06;;;;;;;8.63;6.42;;;;;;;5.87;100.00;100853.32;1613941;86;21545;-62
2022/11/14 01:57:52;;;;;;;10.20;7.20;;;;;;;5.82;100.00;100856.82;1598248;87;21871;-62
2022/11/14 02:00:38;;;;;;;11.40;7.95;;;;;;;5.81;100.00;100856.38;1620427;85;21053;-62
2022/11/14 06:25:00;;;;;;;3.83;3.12;;;;;;;2.38;100.00;100971.28;1793443;78;23213;-68
2022/11/14 06:27:45;;;;;;;9.73;3.10;;;;;;;3.50;100.00;100994.04;1756607;80;21404;-62
2022/11/14 06:30:31;;;;;;;12.73;3.55;;;;;;;3.78;100.00;100994.66;1764657;80;21546;-62
2022/11/14 06:33:16;;;;;;;6.58;3.55;;;;;;;3.98;100.00;100998.69;1767887;80;21916;-64
2022/11/14 06:36:04;;;;;;;9.50;3.20;;;;;;;4.13;100.00;100992.70;1755795;80;21559;-65
2022/11/14 06:38:49;;;;;;;10.55;3.87;;;;;;;4.26;100.00;100989.30;1769616;80;21400;-66
2022/11/14 06:41:36;;;;;;;10.10;3.58;;;;;;;4.42;100.00;100976.75;1766916;80;21656;-66
2022/11/14 06:44:22;;;;;;;8.88;4.30;;;;;;;4.57;100.00;100976.37;1751462;80;21924;-65
2022/11/14 06:47:07;;;;;;;6.78;3.98;;;;;;;4.73;100.00;100975.97;1754522;80;21576;-66
2022/11/14 06:49:52;;;;;;;7.20;4.42;;;;;;;4.80;100.00;100966.90;1763680;80;21489;-65
2022/11/14 06:52:38;;;;;;;6.97;4.60;;;;;;;4.93;100.00;100966.46;1756543;80;21578;-67
2022/11/14 06:55:23;;;;;;;7.95;4.55;;;;;;;5.04;100.00;100968.64;1765471;79;21508;-63
2022/11/14 06:58:08;;;;;;;8.18;4.78;;;;;;;5.14;100.00;100963.45;1753135;80;21877;-63
2022/11/14 07:00:53;;;;;;;7.03;5.12;;;;;;;5.25;100.00;100965.21;1762125;80;21107;-62
2022/11/14 07:03:40;;;;;;;8.75;5.20;;;;;;;5.39;100.00;100963.03;1760755;80;21605;-60
2022/11/14 07:06:26;;;;;;;6.85;5.58;;;;;;;5.51;100.00;100964.75;1770252;80;21509;-63
2022/11/14 07:09:13;;;;;;;;;;;;;;;5.55;100.00;100960.82;1737226;80;21414;-61
2022/11/14 07:11:58;;;;;;;4.25;3.85;;;;;;;5.62;100.00;100954.73;1756775;80;21840;-62
2022/11/14 07:14:43;;;;;;;4.50;3.67;;;;;;;5.68;100.00;100958.20;1758421;80;21415;-62
2022/11/14 07:17:29;;;;;;;5.47;3.47;;;;;;;5.76;100.00;100957.30;1762187;80;21414;-62
2022/11/14 07:20:17;;;;;;;8.40;3.20;;;;;;;5.79;100.00;100956.45;1763397;80;21494;-61
2022/11/14 07:23:02;;;;;;;5.45;3.35;;;;;;;5.81;100.00;100966.45;1760428;80;27547;-62
2022/11/14 07:25:48;;;;;;;7.15;3.42;;;;;;;5.81;100.00;100958.17;1749148;80;21921;-63
2022/11/14 07:28:35;;;;;;;7.65;4.00;;;;;;;5.81;100.00;100965.14;1752167;80;21510;-65
2022/11/14 07:31:20;;;;;;;10.45;3.50;;;;;;;5.83;100.00;100962.09;1749601;80;21665;-63
2022/11/14 07:34:07;;;;;;;4.00;3.67;;;;;;;5.87;100.00;100964.26;1747458;80;21593;-65
2022/11/14 07:36:53;;;;;;;7.72;3.65;;;;;;;5.91;100.00;100970.76;1730394;80;21526;-65
2022/11/14 07:39:39;;;;;;;8.20;3.98;;;;;;;5.94;100.00;100965.98;1745431;80;21799;-66
2022/11/14 07:42:30;;;;;;;6.72;3.50;;;;;;;5.94;100.00;100963.38;1740605;80;21502;-63
2022/11/14 07:45:15;;;;;;;7.12;3.83;;;;;;;5.91;100.00;100958.16;1743644;80;21589;-63
2022/11/14 07:48:01;;;;;;;6.60;3.30;;;;;;;5.87;100.00;100963.81;1757330;80;21491;-61
2022/11/14 07:50:46;;;;;;;5.42;3.75;;;;;;;5.82;100.00;100959.03;1751296;80;21593;-61
2022/11/14 07:53:32;;;;;;;6.03;4.17;;;;;;;5.88;100.00;100967.28;1739727;80;21864;-61
2022/11/14 07:56:17;;;;;;;4.58;3.70;;;;;;;5.97;100.00;100965.98;1752921;80;21431;-61
2022/11/14 07:59:02;;;;;;;9.35;4.60;;;;;;;6.07;100.00;100965.11;1757161;80;21546;-61
2022/11/14 08:01:47;;;;;;;4.50;4.10;;;;;;;6.08;100.00;100951.60;1751076;80;21473;-60
2022/11/14 08:04:33;;;;;;;9.88;4.30;;;;;;;6.04;100.00;100956.83;1747866;80;21573;-67
2022/11/14 08:07:18;;;;;;;4.35;3.95;;;;;;;6.19;100.00;100952.44;1746891;80;21935;-61
2022/11/14 08:10:05;;;;;;;11.00;4.70;;;;;;;6.32;100.00;100951.95;1741369;80;21571;-61
2022/11/14 08:13:11;;;;;;;7.03;4.35;;;;;;;6.42;100.00;100944.48;1747327;80;21451;-59
2022/11/14 08:15:59;;;;;;;7.42;4.87;;;;;;;6.39;100.00;100938.85;1651830;84;21512;-60
2022/11/14 08:18:44;;;;;;;7.30;5.30;;;;;;;6.44;100.00;100941.42;1652315;84;21671;-60
2022/11/14 08:21:29;;;;;;;6.80;5.80;;;;;;;6.51;100.00;100937.91;1656069;84;21819;-61
2022/11/14 08:24:14;;;;;;;7.03;5.42;;;;;;;6.61;100.00;100938.31;1653927;85;21747;-61
2022/11/14 08:27:00;;;;;;;6.53;5.50;;;;;;;6.73;100.00;100943.03;1652384;86;21033;-60
2022/11/14 08:29:45;;;;;;;12.93;6.72;;;;;;;6.82;100.00;100943.83;1653482;86;21640;-61
2022/11/14 08:32:30;;;;;;;7.25;6.47;;;;;;;6.92;100.00;100939.85;1652922;85;20990;-61
2022/11/14 08:35:17;;;;;;;11.18;7.10;;;;;;;6.98;100.00;100935.43;1658531;84;21621;-62
2022/11/14 08:38:02;;;;;;;17.45;7.00;;;;;;;6.99;100.00;100941.55;1653856;84;21584;-61
2022/11/14 08:40:48;;;;;;;14.00;7.37;;;;;;;6.99;100.00;100947.64;1659661;84;21092;-62
2022/11/14 08:43:33;;;;;;;7.25;6.60;;;;;;;7.02;100.00;100953.27;1652416;84;21498;-61
2022/11/14 08:46:17;;;;;;;7.78;6.42;;;;;;;7.11;100.00;100949.73;1654367;85;21513;-62
2022/11/14 08:49:02;;;;;;;8.00;7.12;;;;;;;7.26;100.00;100943.52;1653666;84;22009;-61
2022/11/14 08:51:47;;;;;;;15.00;7.22;;;;;;;7.35;100.00;100936.45;1652777;85;21122;-62
2022/11/14 08:54:32;;;;;;;9.63;7.50;;;;;;;7.40;100.00;100932.05;1625734;84;21541;-62
2022/11/14 08:57:18;;;;;;;7.78;6.80;;;;;;;7.47;100.00;100930.22;1654863;84;21680;-62
2022/11/14 09:00:06;;;;;;;9.95;7.87;;;;;;;7.47;100.00;100928.06;1652260;84;21536;-61
2022/11/14 09:02:51;;;;;;;8.17;7.37;;;;;;;7.53;100.00;100922.75;1648502;86;21816;-61
2022/11/14 09:05:37;;;;;;;8.30;7.35;;;;;;;7.61;100.00;100928.80;1655290;84;21283;-61
2022/11/14 09:08:23;;;;;;;9.10;7.90;;;;;;;7.65;100.00;100910.86;1651016;84;21549;-61
2022/11/14 09:11:08;;;;;;;8.98;7.67;;;;;;;7.68;100.00;100911.27;1653752;85;21566;-61
2022/11/14 09:13:54;;;;;;;11.73;8.98;;;;;;;7.71;100.00;100913.41;1655407;84;21462;-69
2022/11/14 09:16:39;;;;;;;8.68;7.35;;;;;;;7.68;100.00;100905.58;1658633;85;21936;-62
2022/11/14 09:19:24;;;;;;;8.90;7.90;;;;;;;7.71;100.00;100909.94;1661229;85;21441;-61
2022/11/14 09:22:09;;;;;;;9.40;8.38;;;;;;;7.76;100.00;100909.42;1659805;84;21514;-63
2022/11/14 09:24:55;;;;;;;8.70;7.80;;;;;;;7.74;100.00;100905.53;1657040;84;20993;-64
2022/11/14 09:27:41;;;;;;;9.73;7.90;;;;;;;7.74;100.00;100899.41;1660995;85;21593;-67
2022/11/14 09:30:27;;;;;;;8.38;7.58;;;;;;;7.77;100.00;100897.63;1660943;84;21894;-64
2022/11/14 09:33:12;;;;;;;10.00;7.83;;;;;;;7.79;100.00;100901.09;1656998;85;21524;-65
2022/11/14 09:35:59;;;;;;;7.50;6.80;;;;;;;7.83;100.00;100901.06;1660147;84;21449;-65
2022/11/14 09:38:44;;;;;;;6.73;6.03;;;;;;;7.92;100.00;100903.58;1657535;84;21597;-66
2022/11/14 09:41:52;;;;;;;11.05;7.50;;;;;;;8.04;100.00;100901.25;1656288;84;21523;-66
2022/11/14 09:44:56;;;;;;;8.05;6.90;;;;;;;8.14;100.00;100902.89;1661816;84;21937;-66
2022/11/14 09:47:49;;;;;;;7.75;7.03;;;;;;;8.21;100.00;100891.87;1661274;84;21521;-65
2022/11/14 09:50:37;;;;;;;8.73;7.70;;;;;;;8.30;100.00;100893.06;1659921;85;21564;-66
2022/11/14 09:53:28;;;;;;;8.50;7.70;;;;;;;8.27;100.00;100889.16;1659341;85;21712;-66
2022/11/14 14:09:51;;;;;;;7.83;5.40;;;;;;;6.16;100.00;100830.59;1661307;83;21549;-62
2022/11/14 14:12:56;;;;;;;7.05;5.58;;;;;;;6.24;100.00;100827.48;1650357;84;21788;-63
2022/11/14 14:16:19;;;;;;;8.05;5.30;;;;;;;6.26;100.00;100826.61;1664607;84;21036;-65
2022/11/14 14:19:22;;;;;;;7.58;4.90;;;;;;;6.25;100.00;100825.72;1630323;84;21573;-65
2022/11/14 14:22:31;;;;;;;9.15;5.40;;;;;;;6.20;100.00;100815.77;1629113;84;21465;-70
2022/11/14 14:25:59;;;;;;;7.53;5.65;;;;;;;6.18;100.00;100816.22;1629923;86;21643;-68
2022/11/14 14:28:55;;;;;;;13.43;5.45;;;;;;;6.18;100.00;100819.69;1628181;84;21924;-66
2022/11/14 14:31:41;;;;;;;8.73;5.15;;;;;;;6.13;100.00;100824.51;1628514;84;21589;-67
2022/11/14 14:34:30;;;;;;;5.15;4.58;;;;;;;6.07;100.00;100813.66;1626852;84;21600;-65
2022/11/14 14:37:25;;;;;;;6.62;4.42;;;;;;;6.06;100.00;100813.22;1627436;84;21510;-63
2022/11/14 14:40:36;;;;;;;7.22;4.72;;;;;;;6.03;100.00;100814.11;1627278;84;21572;-64
2022/11/14 14:43:33;;;;;;;5.97;4.33;;;;;;;6.01;100.00;100811.09;1607416;86;21955;-65
2022/11/14 14:46:31;;;;;;;7.50;4.85;;;;;;;5.97;100.00;100814.56;1635637;86;21717;-70
2022/11/14 14:49:35;;;;;;;6.25;4.50;;;;;;;5.92;100.00;100808.49;1621545;84;21494;-71
2022/11/14 14:52:35;;;;;;;6.12;5.05;;;;;;;5.87;100.00;100805.03;1624759;85;21560;-68
2022/11/14 14:55:27;;;;;;;7.33;4.78;;;;;;;5.78;100.00;100808.12;1626799;84;21608;-69
2022/11/14 14:58:25;;;;;;;4.97;4.30;;;;;;;5.69;100.00;100809.47;1627672;86;21821;-68
2022/11/14 15:01:25;;;;;;;5.87;4.58;;;;;;;5.64;100.00;100814.69;1626021;86;21072;-70
2022/11/14 15:04:13;;;;;;;6.28;4.60;;;;;;;5.60;100.00;100815.58;1630887;84;21573;-70
2022/11/14 15:06:58;;;;;;;5.62;4.45;;;;;;;5.53;100.00;100809.95;1630733;86;21501;-69
2022/11/14 15:09:57;;;;;;;4.85;4.45;;;;;;;5.50;100.00;100802.56;1630232;84;21617;-70
2022/11/14 15:12:43;;;;;;;4.85;4.40;;;;;;;5.49;100.00;100799.54;1628792;84;21574;-70
2022/11/14 15:15:29;;;;;;;6.30;4.95;;;;;;;5.50;100.00;100807.78;1626286;86;20981;-68
2022/11/14 15:18:20;;;;;;;7.22;5.53;;;;;;;5.50;100.00;100802.16;1623859;85;21075;-69
2022/11/14 15:21:13;;;;;;;6.90;5.37;;;;;;;5.53;100.00;100806.48;1617442;86;21480;-69
2022/11/14 15:24:20;;;;;;;8.58;4.90;;;;;;;5.54;100.00;100805.17;1623019;85;21565;-69
2022/11/14 15:27:19;;;;;;;7.65;5.83;;;;;;;5.55;100.00;100806.89;1691621;82;22181;-68
2022/11/14 15:30:07;;;;;;;8.00;5.60;;;;;;;5.57;100.00;100812.97;1691168;82;21519;-69
2022/11/14 15:32:55;;;;;;;6.78;5.35;;;;;;;5.61;100.00;100813.83;1669384;84;21518;-69
2022/11/14 15:35:42;;;;;;;7.03;5.33;;;;;;;5.60;100.00;100807.75;1684264;84;21632;-69
2022/11/14 15:38:27;;;;;;;7.05;5.65;;;;;;;5.55;100.00;100804.28;1684738;82;21583;-69
2022/11/14 15:41:21;;;;;;;7.17;5.92;;;;;;;5.46;100.00;100804.31;1652514;85;21855;-69
2022/11/14 15:44:29;;;;;;;7.83;6.47;;;;;;;5.39;100.00;100803.48;1682487;84;21444;-70
2022/11/14 15:47:20;;;;;;;;;;;;;;;5.29;100.00;100803.50;1689251;84;21042;-69
2022/11/14 15:50:18;;;;;;;9.30;6.40;;;;;;;5.10;100.00;100799.63;1682785;82;20471;-70
2022/11/14 15:53:05;;;;;;;10.80;7.42;;;;;;;5.15;100.00;100798.33;1683448;82;21544;-68
2022/11/14 15:55:50;;;;;;;9.43;7.90;;;;;;;5.14;100.00;100801.80;1677755;83;27132;-70
2022/11/14 15:58:35;;;;;;;10.00;9.00;;;;;;;5.12;100.00;100803.54;1679806;82;21519;-68
2022/11/14 16:01:23;;;;;;;12.05;9.93;;;;;;;5.09;100.00;100799.21;1683350;82;21587;-69
2022/11/14 16:04:20;;;;;;;13.38;10.48;;;;;;;5.05;100.00;100804.86;1679392;82;21539;-70
2022/11/14 16:07:05;;;;;;;17.07;11.97;;;;;;;5.02;100.00;100802.69;1683099;82;21433;-68
2022/11/14 16:09:51;;;;;;;14.53;11.03;;;;;;;4.96;100.00;100802.27;1676331;82;21936;-70
2022/11/14 16:12:46;;;;;;;14.78;11.57;;;;;;;4.96;100.00;100804.88;1615938;85;21537;-70
2022/11/14 16:15:31;;;;;;;16.35;11.40;;;;;;;4.95;100.00;100811.38;1619824;85;21632;-69
2022/11/14 16:18:17;;;;;;;16.00;11.45;;;;;;;4.94;100.00;100807.92;1617416;85;21513;-70
2022/11/14 16:21:02;;;;;;;17.42;11.43;;;;;;;4.94;100.00;100804.45;1587938;87;21635;-67
2022/11/14 16:23:49;;;;;;;15.80;11.33;;;;;;;4.93;100.00;100801.40;1620627;86;21941;-67
2022/11/14 16:26:34;;;;;;;19.73;10.95;;;;;;;4.90;100.00;100811.81;1630271;86;21444;-68
2022/11/14 16:29:20;;;;;;;18.45;12.30;;;;;;;4.90;100.00;100817.03;1640168;84;21514;-66
2022/11/14 16:32:09;;;;;;;16.73;12.20;;;;;;;4.87;100.00;100807.48;1641604;84;21498;-67
2022/11/14 16:34:56;;;;;;;21.57;11.78;;;;;;;4.87;100.00;100808.78;1653118;86;21603;-67
2022/11/14 16:37:43;;;;;;;16.12;11.65;;;;;;;4.87;100.00;100804.44;1643531;86;21517;-69
2022/11/14 16:40:28;;;;;;;16.27;11.63;;;;;;;4.87;100.00;100803.58;1639100;85;21578;-68
2022/11/14 16:43:14;;;;;;;15.95;11.55;;;;;;;4.87;100.00;100800.97;1637898;86;21453;-69
2022/11/14 16:46:04;;;;;;;16.12;11.12;;;;;;;4.88;100.00;100808.79;1646851;86;21100;-67
2022/11/14 16:48:50;;;;;;;14.55;11.03;;;;;;;4.89;100.00;100803.13;1634980;86;21551;-67
2022/11/14 16:51:37;;;;;;;14.53;10.60;;;;;;;4.92;100.00;100793.16;1642352;85;21550;-67
2022/11/14 16:54:23;;;;;;;19.05;11.18;;;;;;;4.92;100.00;100804.45;1640551;85;21520;-67
2022/11/14 16:57:09;;;;;;;14.68;10.85;;;;;;;4.93;100.00;100797.05;1638818;84;21407;-66
2022/11/14 16:59:56;;;;;;;12.53;10.00;;;;;;;4.93;100.00;100806.17;1644124;85;21102;-65
2022/11/14 17:02:51;;;;;;;15.47;10.20;;;;;;;4.96;100.00;100811.39;1649557;84;21559;-66
2022/11/14 17:05:49;;;;;;;16.95;11.35;;;;;;;4.95;100.00;100810.94;1653679;84;21897;-67
2022/11/14 17:08:35;;;;;;;13.80;10.38;;;;;;;4.98;100.00;100807.48;1664707;84;21646;-66
2022/11/14 17:11:20;;;;;;;14.15;10.30;;;;;;;5.01;100.00;100805.74;1628443;85;21531;-66
2022/11/14 17:14:07;;;;;;;16.03;10.20;;;;;;;5.05;100.00;100802.25;1629308;85;21602;-66
2022/11/14 17:16:52;;;;;;;12.60;9.30;;;;;;;5.10;100.00;100800.93;1627883;84;21831;-65
2022/11/14 17:19:44;;;;;;;10.85;8.43;;;;;;;5.15;100.00;100808.76;1632891;84;22708;-66
2022/11/14 17:22:25;;;;;;;13.55;9.05;;;;;;;5.18;100.00;100811.34;1634603;84;21597;-66
2022/11/14 17:25:10;;;;;;;10.82;7.92;;;;;;;5.25;100.00;100805.25;1635151;85;21479;-67
2022/11/14 17:27:56;;;;;;;8.70;7.15;;;;;;;5.32;100.00;100813.49;1625772;85;21519;-67
2022/11/14 17:30:42;;;;;;;10.25;7.15;;;;;;;5.38;100.00;100813.47;1629406;85;21538;-65
2022/11/14 17:33:27;;;;;;;8.13;6.50;;;;;;;5.44;100.00;100811.27;1622137;85;21516;-66
2022/11/14 17:36:12;;;;;;;9.38;6.92;;;;;;;5.49;100.00;100813.89;1626495;85;21459;-66
2022/11/14 17:38:58;;;;;;;9.45;6.55;;;;;;;5.54;100.00;100807.78;1604025;86;21543;-66
2022/11/14 17:41:45;;;;;;;7.83;6.00;;;;;;;5.60;100.00;100801.67;1613268;86;21642;-67
2022/11/14 17:44:30;;;;;;;7.87;6.33;;;;;;;5.65;100.00;100804.70;1625533;85;21023;-66
2022/11/14 17:47:15;;;;;;;8.10;6.35;;;;;;;5.71;100.00;100799.89;1632102;85;21448;-66
2022/11/14 17:50:00;;;;;;;6.92;5.90;;;;;;;5.75;100.00;100793.77;1637757;85;21479;-65
2022/11/14 17:52:46;;;;;;;9.18;5.17;;;;;;;5.78;100.00;100796.38;1636203;85;21617;-68
2022/11/14 17:55:31;;;;;;;5.65;4.62;;;;;;;5.78;100.00;100796.38;1618118;84;21527;-67
2022/11/14 17:58:16;;;;;;;5.72;4.97;;;;;;;5.81;100.00;100798.95;1628523;85;21549;-66
2022/11/14 18:01:03;;;;;;;5.75;4.55;;;;;;;5.85;100.00;100794.14;1636812;85;21860;-65
2022/11/14 18:03:49;;;;;;;;;;;;;;;5.87;100.00;100791.53;1619356;87;21499;-66
2022/11/14 22:12:09;;;;;;;8.65;7.72;;;;;;;3.17;100.00;100723.45;1792252;77;27545;-65
2022/11/14 22:14:54;;;;;;;11.35;6.95;;;;;;;3.61;100.00;100730.55;1725592;81;21633;-63
2022/11/14 22:17:41;;;;;;;6.78;5.95;;;;;;;3.85;100.00;100720.20;1689288;83;21821;-64
2022/11/14 22:20:27;;;;;;;7.83;6.58;;;;;;;4.02;100.00;100711.11;1691317;83;21562;-63
2022/11/14 22:23:12;;;;;;;7.92;6.05;;;;;;;4.14;100.00;100698.98;1689755;83;21447;-66
2022/11/14 22:25:59;;;;;;;7.03;6.37;;;;;;;4.24;100.00;100692.48;1688852;83;21459;-64
2022/11/14 22:28:45;;;;;;;8.18;6.25;;;;;;;4.39;100.00;100695.52;1694185;83;21573;-63
2022/11/14 22:31:32;;;;;;;9.50;6.53;;;;;;;4.52;100.00;100699.39;1688193;83;21801;-64
2022/11/14 22:34:17;;;;;;;8.83;7.28;;;;;;;4.63;100.00;100698.53;1679881;83;21045;-65
2022/11/14 22:37:03;;;;;;;10.23;7.28;;;;;;;4.76;100.00;100698.49;1687042;83;21553;-64
2022/11/14 22:39:49;;;;;;;10.63;8.03;;;;;;;4.86;100.00;100696.31;1690412;83;21470;-63
2022/11/14 22:42:35;;;;;;;12.85;7.97;;;;;;;4.95;100.00;100686.28;1696291;83;21612;-63
2022/11/14 22:45:21;;;;;;;7.97;6.65;;;;;;;5.02;100.00;100679.73;1696816;82;21848;-64
2022/11/14 22:48:06;;;;;;;7.40;5.97;;;;;;;5.12;100.00;100683.17;1706930;82;21049;-64
2022/11/14 22:51:02;;;;;;;8.00;6.05;;;;;;;5.20;100.00;100681.42;1699416;83;21542;-62
2022/11/14 22:53:50;;;;;;;7.50;5.87;;;;;;;5.21;100.00;100664.88;1701510;83;21422;-64
2022/11/14 22:56:35;;;;;;;8.45;5.67;;;;;;;5.27;100.00;100661.38;1693389;82;21613;-64
2022/11/14 22:59:20;;;;;;;6.72;5.58;;;;;;;5.31;100.00;100659.18;1694170;83;22145;-63
2022/11/14 23:02:05;;;;;;;6.90;5.53;;;;;;;5.37;100.00;100649.16;1697637;82;21538;-65
2022/11/14 23:04:50;;;;;;;7.42;5.42;;;;;;;5.41;100.00;100650.45;1694903;82;20959;-63
2022/11/14 23:07:35;;;;;;;8.35;6.17;;;;;;;5.47;100.00;100649.55;1697858;82;21392;-63
2022/11/14 23:10:20;;;;;;;8.38;5.87;;;;;;;5.52;100.00;100643.87;1686739;83;21439;-64
2022/11/14 23:13:05;;;;;;;7.58;6.08;;;;;;;5.54;100.00;100645.14;1685583;82;21772;-62
2022/11/14 23:15:50;;;;;;;6.83;5.90;;;;;;;5.56;100.00;100634.29;1683356;83;21691;-64
2022/11/14 23:18:37;;;;;;;5.97;5.33;;;;;;;5.59;100.00;100624.67;1691795;83;21381;-64
2022/11/14 23:21:35;;;;;;;7.00;6.08;;;;;;;5.62;100.00;100619.45;1696814;82;21025;-64
2022/11/14 23:24:20;;;;;;;8.28;5.50;;;;;;;5.61;100.00;100611.20;1731736;80;21472;-64
2022/11/14 23:27:07;;;;;;;7.25;6.45;;;;;;;5.60;100.00;100604.24;1752670;80;21751;-64
2022/11/14 23:29:52;;;;;;;7.03;5.80;;;;;;;5.62;100.00;100599.87;1761349;80;21605;-64
2022/11/14 23:32:38;;;;;;;11.20;6.97;;;;;;;5.64;100.00;100594.66;1749746;80;21583;-63
2022/11/14 23:35:23;;;;;;;10.23;7.45;;;;;;;5.66;100.00;100597.66;1744236;80;21579;-68
2022/11/14 23:38:09;;;;;;;8.88;6.85;;;;;;;5.65;100.00;100595.06;1738092;79;21597;-65
2022/11/14 23:40:56;;;;;;;8.48;7.62;;;;;;;5.68;100.00;100598.11;1754165;80;21751;-65
2022/11/14 23:43:43;;;;;;;9.00;7.37;;;;;;;5.66;100.00;100597.66;1765672;80;21014;-65
2022/11/14 23:46:29;;;;;;;8.13;7.33;;;;;;;5.64;100.00;100588.98;1765990;80;21536;-65
2022/11/14 23:49:15;;;;;;;9.05;7.87;;;;;;;5.66;100.00;100596.81;1760594;80;21553;-65
2022/11/14 23:52:02;;;;;;;7.92;7.12;;;;;;;5.65;100.00;100598.56;1772906;80;21575;-66
2022/11/14 23:54:48;;;;;;;8.10;7.00;;;;;;;5.65;100.00;100601.17;1747297;80;21792;-65
2022/11/14 23:57:34;;;;;;;7.45;6.70;;;;;;;5.64;100.00;100590.29;1744895;79;20987;-65
